Time;durP1;ratioP1;P1;durP2;ratioP2;P2;SDS_P1;SDS_P2;PMS_P1;PMS_P2;Temp;Humidity;BMP_temperature;BMP_pressure;BME280_temperature;BME280_humidity;BME280_pressure;Samples;Min_cycle;Max_cycle;Signal;HPM_P1;HPM_P2
2022/09/18 00:04:01;;;;;;;25.70;23.77;;;;;;;;;;10194048;28;20038;-71
2022/09/18 00:08:58;;;;;;;29.40;26.23;;;;;;;;;;10171033;28;20138;-71
2022/09/18 00:13:55;;;;;;;31.77;28.92;;;;;;;;;;10160970;28;20045;-71
2022/09/18 00:18:52;;;;;;;31.20;28.52;;;;;;;;;;10191683;28;20042;-71
2022/09/18 00:23:49;;;;;;;37.17;34.47;;;;;;;;;;10193232;28;20117;-71
2022/09/18 00:28:45;;;;;;;36.72;34.10;;;;;;;;;;10192788;28;20056;-71
2022/09/18 00:33:42;;;;;;;37.85;34.97;;;;;;;;;;10193158;28;20053;-71
2022/09/18 00:38:38;;;;;;;31.45;28.75;;;;;;;;;;10192284;28;20038;-71
2022/09/18 00:43:35;;;;;;;22.88;20.63;;;;;;;;;;10191538;28;20038;-71
2022/09/18 00:48:50;;;;;;;28.77;25.13;;;;;;;;;;10192912;28;20046;-71
2022/09/18 00:53:50;;;;;;;22.63;20.85;;;;;;;;;;10176292;28;20073;-71
2022/09/18 00:58:46;;;;;;;22.40;20.10;;;;;;;;;;10192298;28;20397;-71
2022/09/18 01:03:43;;;;;;;23.55;19.40;;;;;;;;;;10192385;28;20034;-70
2022/09/18 01:09:01;;;;;;;24.13;21.80;;;;;;;;;;10190685;28;20046;-71
2022/09/18 01:14:03;;;;;;;20.58;17.23;;;;;;;;;;10191768;28;20136;-71
2022/09/18 01:19:18;;;;;;;17.90;16.13;;;;;;;;;;10172988;28;20057;-71
2022/09/18 01:24:17;;;;;;;19.42;16.42;;;;;;;;;;10161546;28;20046;-70
2022/09/18 01:29:20;;;;;;;21.83;19.85;;;;;;;;;;10166563;28;20047;-71
2022/09/18 01:34:16;;;;;;;20.52;19.02;;;;;;;;;;10161543;28;20289;-71
2022/09/18 01:39:19;;;;;;;19.45;17.52;;;;;;;;;;10198269;28;20565;-71
2022/09/18 01:44:19;;;;;;;17.80;16.20;;;;;;;;;;10198455;28;20038;-71
2022/09/18 01:49:18;;;;;;;16.42;14.85;;;;;;;;;;10198448;28;20512;-71
2022/09/18 01:54:15;;;;;;;16.42;14.65;;;;;;;;;;10198148;28;20046;-71
2022/09/18 01:59:15;;;;;;;16.85;15.18;;;;;;;;;;10172963;28;20549;-71
2022/09/18 02:04:14;;;;;;;17.48;15.63;;;;;;;;;;10166138;28;20053;-71
2022/09/18 02:09:11;;;;;;;17.42;14.98;;;;;;;;;;10157964;28;20056;-71
2022/09/18 02:14:11;;;;;;;17.63;15.63;;;;;;;;;;10161824;28;20084;-71
2022/09/18 02:19:19;;;;;;;18.75;16.30;;;;;;;;;;10157518;28;20051;-71
2022/09/18 02:24:17;;;;;;;21.35;19.52;;;;;;;;;;10167745;28;20050;-71
2022/09/18 02:29:14;;;;;;;22.17;20.05;;;;;;;;;;10196837;28;20066;-71
2022/09/18 02:34:12;;;;;;;23.55;21.17;;;;;;;;;;10166585;28;20057;-70
2022/09/18 02:39:27;;;;;;;24.33;22.45;;;;;;;;;;10191734;28;20459;-71
2022/09/18 02:44:26;;;;;;;26.10;23.58;;;;;;;;;;10168434;28;20492;-71
2022/09/18 02:49:26;;;;;;;27.65;25.10;;;;;;;;;;10170568;28;20046;-71
2022/09/18 02:54:22;;;;;;;27.35;24.77;;;;;;;;;;10164968;28;20056;-71
2022/09/18 02:59:27;;;;;;;24.95;23.00;;;;;;;;;;10156285;28;20038;-71
2022/09/18 03:04:25;;;;;;;24.70;22.83;;;;;;;;;;10162745;28;20053;-71
2022/09/18 03:09:21;;;;;;;24.13;22.00;;;;;;;;;;10155652;28;20046;-71
2022/09/18 03:14:17;;;;;;;23.50;21.50;;;;;;;;;;10158299;28;20051;-71
2022/09/18 03:19:14;;;;;;;20.85;19.40;;;;;;;;;;10155550;28;20054;-71
2022/09/18 03:24:10;;;;;;;19.30;17.45;;;;;;;;;;10165160;28;20140;-70
2022/09/18 03:29:08;;;;;;;22.83;20.80;;;;;;;;;;10193925;28;20080;-71
2022/09/18 03:34:04;;;;;;;25.10;22.85;;;;;;;;;;10186586;28;20053;-71
2022/09/18 03:39:00;;;;;;;26.58;24.65;;;;;;;;;;10194626;28;20061;-71
2022/09/18 03:43:57;;;;;;;32.42;30.20;;;;;;;;;;10182660;28;20057;-71
2022/09/18 03:48:53;;;;;;;29.52;27.23;;;;;;;;;;10194187;28;20049;-71
2022/09/18 03:53:50;;;;;;;35.05;31.98;;;;;;;;;;10163996;28;20515;-71
2022/09/18 03:58:46;;;;;;;35.65;33.28;;;;;;;;;;10186839;28;20481;-71
2022/09/18 04:03:42;;;;;;;34.80;32.13;;;;;;;;;;10159678;28;20677;-71
2022/09/18 04:08:38;;;;;;;35.97;33.67;;;;;;;;;;10177682;28;20043;-71
2022/09/18 04:13:35;;;;;;;38.20;35.35;;;;;;;;;;10157609;28;20512;-71
2022/09/18 04:18:31;;;;;;;40.60;37.50;;;;;;;;;;10180119;28;20149;-71
2022/09/18 04:23:27;;;;;;;43.08;39.72;;;;;;;;;;10193971;28;20041;-71
2022/09/18 04:28:23;;;;;;;44.20;41.38;;;;;;;;;;10158425;28;20054;-71
2022/09/18 04:33:20;;;;;;;44.63;41.38;;;;;;;;;;10155901;28;20056;-71
2022/09/18 04:38:16;;;;;;;46.47;42.95;;;;;;;;;;10157869;28;20049;-70
2022/09/18 04:43:12;;;;;;;48.42;45.55;;;;;;;;;;10159572;28;20049;-71
2022/09/18 04:48:08;;;;;;;53.67;49.92;;;;;;;;;;10192964;28;20046;-70
2022/09/18 04:53:05;;;;;;;57.35;53.47;;;;;;;;;;10192435;28;20049;-71
2022/09/18 04:58:01;;;;;;;59.75;55.95;;;;;;;;;;10191993;28;20520;-70
2022/09/18 05:02:57;;;;;;;61.45;58.05;;;;;;;;;;10153001;28;20397;-71
2022/09/18 05:07:56;;;;;;;64.82;60.60;;;;;;;;;;10191682;28;20080;-69
2022/09/18 05:12:53;;;;;;;66.50;62.45;;;;;;;;;;10161017;28;20055;-70
2022/09/18 05:17:56;;;;;;;63.67;60.05;;;;;;;;;;10196430;28;20045;-71
2022/09/18 05:22:52;;;;;;;69.78;65.78;;;;;;;;;;10160284;28;20057;-70
2022/09/18 05:27:52;;;;;;;70.53;66.05;;;;;;;;;;10198095;28;20058;-71
2022/09/18 05:32:59;;;;;;;74.78;69.72;;;;;;;;;;10199665;28;20049;-71
2022/09/18 05:37:55;;;;;;;71.93;67.35;;;;;;;;;;10198720;28;20573;-71
2022/09/18 05:42:52;;;;;;;68.00;62.92;;;;;;;;;;10199411;28;20049;-71
2022/09/18 05:47:56;;;;;;;69.40;64.78;;;;;;;;;;10198681;28;20049;-71
2022/09/18 05:52:56;;;;;;;75.15;70.50;;;;;;;;;;10196620;28;20041;-71
2022/09/18 05:57:56;;;;;;;75.53;70.68;;;;;;;;;;10197793;28;20045;-68
2022/09/18 06:03:00;;;;;;;78.93;73.40;;;;;;;;;;10198658;28;20052;-69
2022/09/18 06:08:00;;;;;;;81.18;75.85;;;;;;;;;;10197843;28;20052;-68
2022/09/18 06:13:00;;;;;;;73.60;68.32;;;;;;;;;;10197597;28;20054;-69
2022/09/18 06:17:57;;;;;;;74.40;69.35;;;;;;;;;;10197563;28;20537;-69
2022/09/18 06:22:53;;;;;;;78.13;72.82;;;;;;;;;;10196740;28;20042;-68
2022/09/18 06:27:53;;;;;;;81.93;76.65;;;;;;;;;;10195423;28;20046;-69
2022/09/18 06:32:49;;;;;;;76.85;72.18;;;;;;;;;;10158006;28;20046;-69
2022/09/18 06:37:45;;;;;;;84.10;78.28;;;;;;;;;;10194777;28;20080;-68
2022/09/18 06:42:42;;;;;;;81.47;76.30;;;;;;;;;;10197484;28;20702;-68
2022/09/18 06:47:41;;;;;;;82.38;77.18;;;;;;;;;;10196124;28;20049;-69
2022/09/18 06:52:37;;;;;;;77.60;72.57;;;;;;;;;;10196254;28;20634;-68
2022/09/18 06:57:33;;;;;;;75.35;70.47;;;;;;;;;;10196175;28;20061;-68
2022/09/18 07:02:30;;;;;;;74.47;69.88;;;;;;;;;;10186145;28;20068;-68
2022/09/18 07:07:26;;;;;;;71.15;66.57;;;;;;;;;;10191762;28;20052;-69
2022/09/18 07:12:22;;;;;;;77.97;72.65;;;;;;;;;;10195479;28;20431;-68
2022/09/18 07:17:19;;;;;;;73.72;69.05;;;;;;;;;;10195459;28;20049;-68
2022/09/18 07:22:21;;;;;;;77.68;72.30;;;;;;;;;;10166189;28;20039;-69
2022/09/18 07:27:17;;;;;;;72.65;68.07;;;;;;;;;;10189320;28;20504;-69
2022/09/18 07:32:14;;;;;;;75.85;71.03;;;;;;;;;;10194925;28;20068;-68
2022/09/18 07:37:10;;;;;;;74.97;70.15;;;;;;;;;;10194553;28;20054;-69
2022/09/18 07:42:06;;;;;;;72.00;67.32;;;;;;;;;;10194755;28;20046;-69
2022/09/18 07:47:04;;;;;;;81.68;76.63;;;;;;;;;;10194593;28;20504;-68
2022/09/18 07:52:00;;;;;;;80.57;75.38;;;;;;;;;;10194731;28;20042;-68
2022/09/18 07:56:57;;;;;;;85.88;80.35;;;;;;;;;;10193667;28;20500;-69
2022/09/18 08:01:54;;;;;;;80.32;75.13;;;;;;;;;;10194442;28;20046;-69
2022/09/18 08:06:52;;;;;;;81.20;75.97;;;;;;;;;;10188917;28;20061;-69
2022/09/18 08:11:51;;;;;;;74.50;70.03;;;;;;;;;;10193569;28;20076;-69
2022/09/18 08:16:47;;;;;;;60.85;56.50;;;;;;;;;;10199071;28;20050;-69
2022/09/18 08:21:43;;;;;;;56.17;52.35;;;;;;;;;;10193383;28;20046;-69
2022/09/18 08:26:40;;;;;;;59.75;56.08;;;;;;;;;;10193201;28;20423;-69
2022/09/18 08:31:36;;;;;;;57.72;54.05;;;;;;;;;;10192180;28;20361;-68
2022/09/18 08:36:32;;;;;;;52.30;48.92;;;;;;;;;;10193163;28;20084;-69
2022/09/18 08:41:29;;;;;;;39.17;36.25;;;;;;;;;;10173928;28;20058;-68
2022/09/18 08:46:37;;;;;;;40.42;37.67;;;;;;;;;;10190871;28;20053;-69
2022/09/18 08:51:56;;;;;;;50.70;47.60;;;;;;;;;;10178122;28;20042;-69
2022/09/18 08:56:54;;;;;;;60.85;56.78;;;;;;;;;;10195166;28;20042;-68
2022/09/18 09:01:56;;;;;;;63.63;59.40;;;;;;;;;;10166130;28;20064;-69
2022/09/18 09:06:52;;;;;;;65.32;61.17;;;;;;;;;;10196947;28;20049;-69
2022/09/18 09:12:02;;;;;;;71.75;66.65;;;;;;;;;;10204996;28;20058;-69
2022/09/18 09:17:02;;;;;;;15.55;14.15;;;;;;;;;;10205506;28;20046;-68
2022/09/18 09:22:12;;;;;;;15.90;14.50;;;;;;;;;;10205624;28;20050;-69
2022/09/18 09:27:23;;;;;;;15.32;13.38;;;;;;;;;;10205467;28;20056;-69
2022/09/18 09:32:19;;;;;;;11.60;10.43;;;;;;;;;;10205905;28;20053;-69
2022/09/18 09:37:18;;;;;;;14.38;10.77;;;;;;;;;;10204322;28;20396;-69
2022/09/18 09:42:14;;;;;;;11.52;10.63;;;;;;;;;;10205091;28;20053;-69
2022/09/18 09:47:29;;;;;;;13.85;12.38;;;;;;;;;;10204985;28;20056;-69
2022/09/18 09:52:27;;;;;;;13.20;12.13;;;;;;;;;;10204617;28;20084;-69
2022/09/18 09:57:29;;;;;;;15.48;14.10;;;;;;;;;;10199564;28;20049;-69
2022/09/18 10:02:35;;;;;;;13.32;12.23;;;;;;;;;;10189193;28;20050;-69
2022/09/18 10:07:44;;;;;;;13.55;12.13;;;;;;;;;;10194504;28;20052;-69
2022/09/18 10:12:47;;;;;;;14.57;13.10;;;;;;;;;;10176295;28;20050;-69
2022/09/18 10:17:45;;;;;;;15.15;13.82;;;;;;;;;;10196102;28;20038;-69
2022/09/18 10:22:41;;;;;;;17.55;16.15;;;;;;;;;;10167241;28;20397;-69
2022/09/18 10:27:38;;;;;;;13.05;12.00;;;;;;;;;;10195135;28;20538;-69
2022/09/18 10:32:35;;;;;;;14.27;12.88;;;;;;;;;;10197176;28;20046;-69
2022/09/18 10:37:31;;;;;;;11.63;9.55;;;;;;;;;;10196976;28;20077;-69
2022/09/18 10:42:29;;;;;;;10.88;9.38;;;;;;;;;;10162612;28;20519;-69
2022/09/18 10:47:26;;;;;;;12.35;10.02;;;;;;;;;;10181521;28;20080;-68
2022/09/18 10:52:36;;;;;;;14.23;10.95;;;;;;;;;;10157473;28;20505;-68
2022/09/18 10:57:36;;;;;;;26.30;24.20;;;;;;;;;;10192666;28;20045;-69
2022/09/18 11:02:37;;;;;;;43.30;40.58;;;;;;;;;;10196400;28;20045;-68
2022/09/18 11:07:33;;;;;;;53.20;49.40;;;;;;;;;;10195031;28;20054;-68
2022/09/18 11:12:30;;;;;;;59.22;55.63;;;;;;;;;;10195719;28;20050;-68
2022/09/18 11:17:28;;;;;;;90.03;84.93;;;;;;;;;;10195832;28;20417;-68
2022/09/18 11:22:41;;;;;;;116.32;109.78;;;;;;;;;;10195413;28;20042;-68
2022/09/18 11:27:45;;;;;;;74.32;70.15;;;;;;;;;;10195423;28;20132;-67
2022/09/18 11:32:43;;;;;;;57.28;54.20;;;;;;;;;;10195260;28;20049;-68
2022/09/18 11:37:44;;;;;;;23.83;22.42;;;;;;;;;;10194990;28;20042;-68
2022/09/18 11:42:42;;;;;;;17.58;15.93;;;;;;;;;;10194300;28;20038;-68
2022/09/18 11:47:41;;;;;;;20.73;18.90;;;;;;;;;;10194498;28;20049;-67
2022/09/18 11:52:41;;;;;;;14.43;13.10;;;;;;;;;;10193752;28;20041;-67
2022/09/18 11:57:39;;;;;;;9.13;8.32;;;;;;;;;;10193503;28;20038;-67
2022/09/18 12:02:39;;;;;;;17.90;14.93;;;;;;;;;;10193977;28;20442;-68
2022/09/18 12:07:42;;;;;;;19.40;18.10;;;;;;;;;;10193343;28;20540;-68
2022/09/18 12:12:43;;;;;;;30.73;28.33;;;;;;;;;;10194290;28;20060;-68
2022/09/18 12:17:39;;;;;;;33.42;31.35;;;;;;;;;;10192208;28;20042;-68
2022/09/18 12:22:45;;;;;;;27.75;25.63;;;;;;;;;;10189148;28;20049;-68
2022/09/18 12:28:07;;;;;;;20.85;19.00;;;;;;;;;;10191139;28;20053;-68
2022/09/18 12:33:23;;;;;;;17.50;15.80;;;;;;;;;;10174040;28;20050;-68
2022/09/18 12:38:27;;;;;;;15.13;13.85;;;;;;;;;;10192772;28;20069;-67
2022/09/18 12:43:42;;;;;;;17.75;13.18;;;;;;;;;;10193017;28;20042;-67
2022/09/18 12:48:57;;;;;;;18.27;12.05;;;;;;;;;;10192367;28;20057;-67
2022/09/18 12:54:09;;;;;;;12.43;10.95;;;;;;;;;;10193001;28;20050;-68
2022/09/18 12:59:25;;;;;;;16.13;14.57;;;;;;;;;;10158245;28;20645;-68
2022/09/18 13:04:24;;;;;;;16.42;15.05;;;;;;;;;;10163130;28;20049;-68
2022/09/18 13:09:23;;;;;;;20.42;18.80;;;;;;;;;;10191421;28;20054;-68
2022/09/18 13:14:28;;;;;;;22.50;20.55;;;;;;;;;;10185652;28;20047;-68
2022/09/18 13:19:24;;;;;;;;;;;;;;;;;;10152644;28;20585;-68
2022/09/18 13:24:32;;;;;;;11.77;9.57;;;;;;;;;;10170267;28;19925;-68
2022/09/18 13:29:50;;;;;;;10.43;9.30;;;;;;;;;;10193144;28;20050;-68
2022/09/18 13:34:58;;;;;;;12.50;11.57;;;;;;;;;;10174135;28;20061;-68
2022/09/18 13:39:56;;;;;;;15.63;14.50;;;;;;;;;;10186757;28;20050;-68
2022/09/18 13:45:15;;;;;;;15.25;13.98;;;;;;;;;;10175490;28;20129;-68
2022/09/18 13:50:15;;;;;;;14.10;12.73;;;;;;;;;;10198905;28;20050;-68
2022/09/18 13:55:11;;;;;;;16.90;15.45;;;;;;;;;;10199602;28;20721;-68
2022/09/18 14:00:34;;;;;;;20.45;18.95;;;;;;;;;;10167882;28;20086;-68
2022/09/18 14:05:32;;;;;;;21.35;19.75;;;;;;;;;;10178588;28;20042;-68
2022/09/18 14:10:37;;;;;;;26.70;24.77;;;;;;;;;;10198064;28;20048;-68
2022/09/18 14:15:33;;;;;;;33.13;31.05;;;;;;;;;;10196485;28;20046;-68
2022/09/18 14:20:30;;;;;;;34.70;32.90;;;;;;;;;;10197798;28;20042;-68
2022/09/18 14:25:44;;;;;;;51.38;48.50;;;;;;;;;;10197382;28;20049;-68
2022/09/18 14:30:40;;;;;;;;;;;;;;;;;;10197982;28;20057;-68
2022/09/18 14:35:48;;;;;;;55.88;52.97;;;;;;;;;;10197245;28;20287;-68
2022/09/18 14:40:48;;;;;;;63.53;59.78;;;;;;;;;;10197192;28;20048;-68
2022/09/18 14:45:46;;;;;;;66.72;62.92;;;;;;;;;;10196637;28;20048;-68
2022/09/18 14:50:43;;;;;;;55.95;52.92;;;;;;;;;;10196800;28;20046;-68
2022/09/18 14:55:40;;;;;;;60.92;57.50;;;;;;;;;;10195583;28;20057;-67
2022/09/18 15:00:37;;;;;;;30.83;28.77;;;;;;;;;;10196377;28;20041;-67
2022/09/18 15:05:33;;;;;;;35.80;33.80;;;;;;;;;;10196374;28;20511;-68
2022/09/18 15:10:35;;;;;;;38.63;36.30;;;;;;;;;;10195416;28;20507;-68
2022/09/18 15:15:32;;;;;;;40.77;38.60;;;;;;;;;;10195684;28;20050;-68
2022/09/18 15:20:29;;;;;;;28.75;26.70;;;;;;;;;;10195311;28;20456;-68
2022/09/18 15:25:30;;;;;;;20.08;18.33;;;;;;;;;;10194168;28;20050;-68
2022/09/18 15:30:27;;;;;;;21.38;19.88;;;;;;;;;;10195757;28;20076;-67
2022/09/18 15:35:25;;;;;;;26.35;24.27;;;;;;;;;;10192542;28;20057;-68
2022/09/18 15:40:25;;;;;;;26.75;25.02;;;;;;;;;;10195259;28;20054;-67
2022/09/18 15:45:22;;;;;;;33.55;31.30;;;;;;;;;;10194114;28;20045;-68
2022/09/18 15:50:19;;;;;;;34.80;32.42;;;;;;;;;;10194537;28;20045;-68
2022/09/18 15:55:16;;;;;;;33.40;31.40;;;;;;;;;;10193361;28;20049;-68
2022/09/18 16:00:15;;;;;;;36.03;33.72;;;;;;;;;;10194347;28;20081;-68
2022/09/18 16:05:13;;;;;;;33.72;31.70;;;;;;;;;;10194316;28;20056;-68
2022/09/18 16:10:28;;;;;;;28.67;26.55;;;;;;;;;;10192004;28;20049;-68
2022/09/18 16:15:24;;;;;;;25.65;24.02;;;;;;;;;;10193925;28;20046;-68
2022/09/18 16:20:21;;;;;;;21.65;20.13;;;;;;;;;;10193273;28;20052;-68
2022/09/18 16:25:19;;;;;;;17.27;16.13;;;;;;;;;;10193564;28;20451;-67
2022/09/18 16:30:15;;;;;;;17.40;16.30;;;;;;;;;;10193515;28;20451;-67
2022/09/18 16:35:13;;;;;;;21.50;20.10;;;;;;;;;;10192982;28;20743;-68
2022/09/18 16:40:20;;;;;;;20.27;18.63;;;;;;;;;;10193654;28;20053;-68
2022/09/18 16:45:23;;;;;;;20.92;19.52;;;;;;;;;;10191562;28;20049;-68
2022/09/18 16:50:19;;;;;;;22.45;21.08;;;;;;;;;;10192671;28;20053;-68
2022/09/18 16:55:16;;;;;;;23.05;21.55;;;;;;;;;;10192419;28;20489;-68
2022/09/18 17:00:12;;;;;;;27.52;25.80;;;;;;;;;;10193083;28;20393;-68
2022/09/18 17:05:09;;;;;;;32.53;30.52;;;;;;;;;;10194142;28;20046;-68
2022/09/18 17:10:05;;;;;;;36.45;34.33;;;;;;;;;;10200036;28;20401;-68
2022/09/18 17:15:01;;;;;;;37.90;35.75;;;;;;;;;;10200470;28;20723;-68
2022/09/18 17:19:58;;;;;;;39.15;36.20;;;;;;;;;;10200446;28;20046;-68
2022/09/18 17:24:54;;;;;;;45.33;42.72;;;;;;;;;;10199516;28;20057;-67
2022/09/18 17:29:50;;;;;;;46.95;43.90;;;;;;;;;;10199272;28;20064;-68
2022/09/18 17:34:47;;;;;;;48.47;45.78;;;;;;;;;;10197265;28;20041;-68
2022/09/18 17:39:44;;;;;;;46.65;43.72;;;;;;;;;;10159419;28;20053;-68
2022/09/18 17:44:40;;;;;;;48.47;45.40;;;;;;;;;;10159848;28;20050;-67
2022/09/18 17:49:36;;;;;;;51.95;48.55;;;;;;;;;;10159177;28;20057;-68
2022/09/18 17:54:34;;;;;;;50.72;47.80;;;;;;;;;;10191025;28;20401;-67
2022/09/18 17:59:31;;;;;;;49.97;46.95;;;;;;;;;;10197810;28;20042;-68
2022/09/18 18:04:28;;;;;;;52.72;49.65;;;;;;;;;;10198513;28;20543;-68
2022/09/18 18:09:24;;;;;;;56.83;53.22;;;;;;;;;;10187545;28;20054;-68
2022/09/18 18:14:23;;;;;;;56.45;52.72;;;;;;;;;;10168596;28;20546;-67
2022/09/18 18:19:20;;;;;;;64.25;60.17;;;;;;;;;;10196187;28;20051;-68
2022/09/18 18:24:17;;;;;;;70.50;66.22;;;;;;;;;;10197774;28;20050;-67
2022/09/18 18:29:15;;;;;;;68.80;64.47;;;;;;;;;;10196906;28;20049;-67
2022/09/18 18:34:12;;;;;;;72.03;67.93;;;;;;;;;;10197351;28;20041;-68
2022/09/18 18:39:11;;;;;;;74.18;69.63;;;;;;;;;;10196378;28;20052;-67
2022/09/18 18:44:08;;;;;;;80.47;75.00;;;;;;;;;;10197078;28;20042;-68
2022/09/18 18:49:10;;;;;;;77.18;72.18;;;;;;;;;;10196043;28;20057;-67
2022/09/18 18:54:06;;;;;;;83.63;78.10;;;;;;;;;;10196336;28;20049;-68
2022/09/18 18:59:04;;;;;;;87.70;82.00;;;;;;;;;;10196069;28;20419;-68
2022/09/18 19:04:03;;;;;;;85.53;80.28;;;;;;;;;;10195629;28;20053;-68
2022/09/18 19:09:00;;;;;;;88.10;82.28;;;;;;;;;;10195664;28;20135;-67
2022/09/18 19:13:58;;;;;;;82.65;77.55;;;;;;;;;;10195135;28;20042;-68
2022/09/18 19:18:57;;;;;;;83.70;78.43;;;;;;;;;;10195164;28;20050;-68
2022/09/18 19:23:55;;;;;;;86.30;80.50;;;;;;;;;;10195076;28;20038;-68
2022/09/18 19:28:52;;;;;;;88.43;82.88;;;;;;;;;;10194347;28;20056;-68
2022/09/18 19:33:49;;;;;;;90.00;84.15;;;;;;;;;;10161793;28;20037;-68
2022/09/18 19:39:12;;;;;;;89.68;83.90;;;;;;;;;;10194488;28;20046;-68
2022/09/18 19:44:11;;;;;;;89.90;83.97;;;;;;;;;;10194470;28;20045;-67
2022/09/18 19:49:13;;;;;;;89.40;83.78;;;;;;;;;;10169290;28;20229;-67
2022/09/18 19:54:10;;;;;;;95.75;90.03;;;;;;;;;;10161610;28;20065;-67
2022/09/18 19:59:06;;;;;;;91.47;85.47;;;;;;;;;;10153940;28;20042;-68
2022/09/18 20:04:02;;;;;;;97.80;91.65;;;;;;;;;;10160134;28;20045;-68
2022/09/18 20:08:59;;;;;;;94.30;87.85;;;;;;;;;;10153746;28;20101;-68
2022/09/18 20:13:55;;;;;;;96.03;89.72;;;;;;;;;;10161898;28;20530;-68
2022/09/18 20:18:51;;;;;;;96.55;89.60;;;;;;;;;;10193632;28;20057;-68
2022/09/18 20:23:47;;;;;;;91.90;85.88;;;;;;;;;;10181128;28;20427;-68
2022/09/18 20:28:43;;;;;;;95.35;88.95;;;;;;;;;;10193320;28;20052;-68
2022/09/18 20:33:40;;;;;;;98.35;92.47;;;;;;;;;;10173263;28;20049;-68
2022/09/18 20:38:38;;;;;;;94.60;88.90;;;;;;;;;;10192377;28;20049;-68
2022/09/18 20:43:37;;;;;;;98.25;91.85;;;;;;;;;;10192393;28;20038;-68
2022/09/18 20:48:34;;;;;;;103.47;97.65;;;;;;;;;;10192327;28;20041;-68
2022/09/18 20:53:30;;;;;;;90.97;85.13;;;;;;;;;;10193311;28;20496;-68
2022/09/18 20:58:27;;;;;;;100.07;93.50;;;;;;;;;;10192233;28;20046;-68
2022/09/18 21:03:23;;;;;;;95.57;89.50;;;;;;;;;;10192785;28;20403;-68
2022/09/18 21:08:20;;;;;;;93.32;87.65;;;;;;;;;;10167022;28;20066;-68
2022/09/18 21:13:16;;;;;;;96.65;90.75;;;;;;;;;;10162398;28;20046;-68
2022/09/18 21:18:15;;;;;;;100.15;94.45;;;;;;;;;;10192265;28;20045;-68
2022/09/18 21:28:26;;;;;;;91.97;86.35;;;;;;;;;;10192538;28;20761;-68
2022/09/18 21:33:22;;;;;;;90.65;85.15;;;;;;;;;;10161230;28;20050;-67
2022/09/18 21:38:19;;;;;;;82.88;78.05;;;;;;;;;;10191495;28;20054;-68
2022/09/18 21:43:16;;;;;;;82.82;77.82;;;;;;;;;;10191064;28;20046;-68
2022/09/18 21:48:12;;;;;;;88.15;82.90;;;;;;;;;;10173426;28;20460;-68
2022/09/18 21:53:08;;;;;;;85.03;79.90;;;;;;;;;;10157876;28;20639;-68
2022/09/18 21:58:05;;;;;;;81.20;76.38;;;;;;;;;;10169102;28;20048;-67
2022/09/18 22:03:01;;;;;;;79.50;74.78;;;;;;;;;;10158669;28;20072;-67
2022/09/18 22:07:58;;;;;;;80.65;75.95;;;;;;;;;;10159105;28;20046;-68
2022/09/18 22:12:54;;;;;;;81.45;76.65;;;;;;;;;;10173818;28;20528;-68
2022/09/18 22:17:50;;;;;;;82.28;77.28;;;;;;;;;;10197226;28;20085;-68
2022/09/18 22:22:47;;;;;;;84.88;79.72;;;;;;;;;;10197853;28;20050;-68
2022/09/18 22:27:43;;;;;;;88.60;83.30;;;;;;;;;;10197614;28;20060;-68
2022/09/18 22:32:40;;;;;;;89.20;83.80;;;;;;;;;;10191388;28;20038;-68
2022/09/18 22:37:36;;;;;;;88.68;83.47;;;;;;;;;;10194238;28;20046;-68
2022/09/18 22:42:32;;;;;;;88.80;83.60;;;;;;;;;;10197023;28;20520;-68
2022/09/18 22:47:28;;;;;;;88.90;83.63;;;;;;;;;;10197256;28;20052;-68
2022/09/18 22:52:25;;;;;;;91.07;85.85;;;;;;;;;;10174771;28;20054;-68
2022/09/18 22:57:21;;;;;;;95.63;90.05;;;;;;;;;;10191608;28;20046;-68
2022/09/18 23:02:18;;;;;;;93.85;88.40;;;;;;;;;;10170249;28;20046;-68
2022/09/18 23:07:14;;;;;;;95.72;90.32;;;;;;;;;;10190263;28;20599;-68
2022/09/18 23:12:11;;;;;;;89.50;84.40;;;;;;;;;;10195922;28;20050;-68
2022/09/18 23:17:07;;;;;;;95.97;90.47;;;;;;;;;;10195285;28;20049;-68
2022/09/18 23:22:04;;;;;;;98.15;92.55;;;;;;;;;;10196060;28;20046;-68
2022/09/18 23:27:00;;;;;;;96.85;91.35;;;;;;;;;;10195195;28;20056;-68
2022/09/18 23:31:56;;;;;;;92.03;86.85;;;;;;;;;;10195725;28;20447;-68
2022/09/18 23:36:53;;;;;;;95.72;90.07;;;;;;;;;;10194632;28;20490;-69
2022/09/18 23:41:50;;;;;;;96.38;90.78;;;;;;;;;;10194997;28;20045;-68
2022/09/18 23:46:46;;;;;;;101.93;96.18;;;;;;;;;;10194112;28;20089;-68
2022/09/18 23:51:45;;;;;;;97.68;92.22;;;;;;;;;;10194961;28;20564;-68
2022/09/18 23:56:41;;;;;;;98.70;93.18;;;;;;;;;;10170010;28;20049;-69
